Time;durP1;ratioP1;P1;durP2;ratioP2;P2;SDS_P1;SDS_P2;PMS_P1;PMS_P2;Temp;Humidity;BMP_temperature;BMP_pressure;BME280_temperature;BME280_humidity;BME280_pressure;Samples;Min_cycle;Max_cycle;Signal;HPM_P1;HPM_P2
2022/12/23 00:02:19;;;;;;;;;;;17.60;51.00;;;;;;5088325;28;19924;-67
2022/12/23 00:04:44;;;;;;;;;;;17.60;51.00;;;;;;5071682;28;19927;-66
2022/12/23 00:07:10;;;;;;;;;;;17.60;51.00;;;;;;5071707;28;19921;-67
2022/12/23 00:09:35;;;;;;;;;;;17.60;51.10;;;;;;5071681;28;19930;-67
2022/12/23 00:15:17;;;;;;;;;;;17.60;51.20;;;;;;5071290;28;20396;-67
2022/12/23 00:17:34;;;;;;;;;;;17.60;51.20;;;;;;5071663;28;19920;-67
2022/12/23 00:20:00;;;;;;;;;;;17.60;51.20;;;;;;5071527;28;20387;-72
2022/12/23 00:25:11;;;;;;;;;;;17.50;51.20;;;;;;5071282;28;19924;-67
2022/12/23 00:27:37;;;;;;;;;;;17.50;51.20;;;;;;5071652;28;19920;-66
2022/12/23 00:30:03;;;;;;;;;;;17.50;51.20;;;;;;5072793;28;19967;-66
2022/12/23 00:32:29;;;;;;;;;;;17.50;51.30;;;;;;5071604;28;19921;-67
2022/12/23 00:34:55;;;;;;;;;;;17.50;51.30;;;;;;5071291;28;19921;-68
2022/12/23 00:37:20;;;;;;;;;;;17.50;51.30;;;;;;5071163;28;19921;-69
2022/12/23 00:43:02;;;;;;;;;;;17.50;51.40;;;;;;5072290;28;19994;-69
2022/12/23 00:45:17;;;;;;;;;;;17.40;51.30;;;;;;5071306;28;19921;-68
2022/12/23 00:50:29;;;;;;;;;;;17.40;51.40;;;;;;5071244;28;19920;-68
2022/12/23 00:52:55;;;;;;;;;;;17.40;51.50;;;;;;5072402;28;19921;-67
2022/12/23 00:55:21;;;;;;;;;;;17.40;51.50;;;;;;5072252;28;19927;-66
2022/12/23 00:57:46;;;;;;;;;;;17.40;51.50;;;;;;5072262;28;20261;-67
2022/12/23 01:00:12;;;;;;;;;;;17.40;51.50;;;;;;5072324;28;20299;-72
2022/12/23 01:05:38;;;;;;;;;;;17.40;51.60;;;;;;5074140;28;19966;-67
2022/12/23 01:08:06;;;;;;;;;;;17.40;51.60;;;;;;5091129;28;20411;-67
2022/12/23 01:10:33;;;;;;;;;;;17.40;51.60;;;;;;5092392;28;19920;-66
2022/12/23 01:12:58;;;;;;;;;;;17.40;51.60;;;;;;5074127;28;19921;-66
2022/12/23 01:15:24;;;;;;;;;;;17.30;51.60;;;;;;5074701;28;19924;-66
2022/12/23 01:17:49;;;;;;;;;;;17.30;51.70;;;;;;5074269;28;20386;-66
2022/12/23 01:20:15;;;;;;;;;;;17.30;51.60;;;;;;5092530;28;19920;-66
2022/12/23 01:22:40;;;;;;;;;;;17.30;51.60;;;;;;5092398;28;19932;-66
2022/12/23 01:25:06;;;;;;;;;;;17.30;51.70;;;;;;5094762;28;19926;-66
2022/12/23 01:27:32;;;;;;;;;;;17.30;51.70;;;;;;5096222;28;20296;-67
2022/12/23 01:29:57;;;;;;;;;;;17.30;51.70;;;;;;5078312;28;19923;-71
2022/12/23 01:32:23;;;;;;;;;;;17.30;51.80;;;;;;5096288;28;19924;-66
2022/12/23 01:34:48;;;;;;;;;;;17.30;51.80;;;;;;5078011;28;19965;-67
2022/12/23 01:37:14;;;;;;;;;;;17.30;51.80;;;;;;5096263;28;19930;-74
2022/12/23 01:39:39;;;;;;;;;;;17.30;51.90;;;;;;5078149;28;20120;-67
2022/12/23 01:47:42;;;;;;;;;;;17.20;51.80;;;;;;5089891;28;19913;-67
2022/12/23 01:55:45;;;;;;;;;;;17.20;51.90;;;;;;5127576;27;1866915;-67
2022/12/23 01:58:15;;;;;;;;;;;17.40;51.90;;;;;;5174433;27;19948;-67
2022/12/23 02:03:42;;;;;;;;;;;18.10;50.90;;;;;;5192890;27;19923;-67
2022/12/23 02:09:26;;;;;;;;;;;18.90;49.30;;;;;;5192894;27;19965;-66
2022/12/23 02:17:33;;;;;;;;;;;21.00;45.10;;;;;;5088279;28;19921;-72
2022/12/23 02:20:19;;;;;;;;;;;21.90;43.50;;;;;;5088409;28;19920;-67
2022/12/23 02:22:55;;;;;;;;;;;22.50;42.30;;;;;;5088517;28;19960;-67
2022/12/23 02:25:41;;;;;;;;;;;23.00;41.40;;;;;;5088359;28;19999;-67
2022/12/23 02:28:26;;;;;;;;;;;23.40;40.70;;;;;;5089488;28;19920;-66
2022/12/23 02:30:59;;;;;;;;;;;23.80;40.00;;;;;;5088015;28;19970;-67
2022/12/23 02:33:45;;;;;;;;;;;24.10;39.40;;;;;;5088357;28;19928;-67
2022/12/23 02:36:18;;;;;;;;;;;24.30;39.10;;;;;;5088291;28;19920;-66
2022/12/23 02:38:53;;;;;;;;;;;24.50;38.80;;;;;;5088503;28;19925;-66
2022/12/23 02:41:22;;;;;;;;;;;24.50;38.60;;;;;;5087988;28;19925;-67
2022/12/23 02:43:53;;;;;;;;;;;24.60;38.50;;;;;;5088439;28;19970;-66
2022/12/23 02:46:22;;;;;;;;;;;24.70;38.40;;;;;;5088323;28;19920;-66
2022/12/23 02:48:50;;;;;;;;;;;24.70;38.30;;;;;;5089309;28;19920;-67
2022/12/23 02:51:19;;;;;;;;;;;24.70;38.30;;;;;;5089143;28;19966;-72
2022/12/23 02:53:48;;;;;;;;;;;24.60;38.20;;;;;;5087870;28;20392;-66
2022/12/23 02:56:14;;;;;;;;;;;24.50;38.40;;;;;;5087782;28;19978;-67
2022/12/23 02:58:43;;;;;;;;;;;24.40;38.50;;;;;;5089330;28;19921;-67
2022/12/23 03:01:10;;;;;;;;;;;24.30;38.80;;;;;;5088069;28;19943;-72
2022/12/23 03:03:36;;;;;;;;;;;24.10;38.90;;;;;;5089124;28;19985;-67
2022/12/23 03:06:04;;;;;;;;;;;24.00;39.20;;;;;;5087672;28;19959;-66
2022/12/23 03:08:42;;;;;;;;;;;23.80;39.40;;;;;;5088954;28;19955;-67
2022/12/23 03:11:09;;;;;;;;;;;23.60;39.70;;;;;;5088938;28;19932;-67
2022/12/23 03:21:43;;;;;;;;;;;22.90;40.60;;;;;;5110216;27;19918;-67
2022/12/23 03:29:37;;;;;;;;;;;22.70;40.90;;;;;;5089937;28;20302;-67
2022/12/23 03:32:03;;;;;;;;;;;22.70;41.10;;;;;;5088869;28;19931;-67
2022/12/23 03:34:33;;;;;;;;;;;22.70;41.10;;;;;;5090024;28;20363;-67
2022/12/23 03:37:01;;;;;;;;;;;22.70;41.20;;;;;;5088507;28;19920;-67
2022/12/23 03:39:30;;;;;;;;;;;22.70;41.10;;;;;;5089725;28;19963;-67
2022/12/23 03:41:59;;;;;;;;;;;22.80;41.10;;;;;;5088355;28;19928;-67
2022/12/23 03:44:26;;;;;;;;;;;22.80;41.00;;;;;;5089612;28;19963;-66
2022/12/23 03:46:57;;;;;;;;;;;22.90;40.90;;;;;;5089513;28;20343;-66
2022/12/23 03:49:26;;;;;;;;;;;23.00;40.70;;;;;;5088225;28;19928;-67
2022/12/23 03:51:59;;;;;;;;;;;23.10;40.60;;;;;;5088524;28;19921;-66
2022/12/23 03:54:29;;;;;;;;;;;23.10;40.50;;;;;;5089491;28;20020;-72
2022/12/23 03:57:00;;;;;;;;;;;23.20;40.50;;;;;;5088421;28;19921;-67
2022/12/23 03:59:27;;;;;;;;;;;23.20;40.40;;;;;;5088143;28;19920;-67
2022/12/23 04:02:04;;;;;;;;;;;23.20;40.30;;;;;;5088073;28;19924;-67
2022/12/23 04:04:50;;;;;;;;;;;23.10;40.40;;;;;;5088269;28;19920;-67
2022/12/23 04:07:25;;;;;;;;;;;23.10;40.40;;;;;;5087856;28;19927;-67
2022/12/23 04:09:52;;;;;;;;;;;23.00;40.50;;;;;;5088139;28;19966;-67
2022/12/23 04:12:17;;;;;;;;;;;22.90;40.60;;;;;;5087952;28;19974;-67
2022/12/23 04:14:46;;;;;;;;;;;22.90;40.70;;;;;;5088043;28;19925;-67
2022/12/23 04:17:11;;;;;;;;;;;22.90;40.80;;;;;;5088111;28;20017;-67
2022/12/23 04:19:37;;;;;;;;;;;22.80;40.70;;;;;;5088170;28;20012;-67
2022/12/23 04:22:02;;;;;;;;;;;22.80;40.80;;;;;;5088952;28;20330;-67
2022/12/23 04:24:28;;;;;;;;;;;22.70;40.80;;;;;;5087632;28;20456;-67
2022/12/23 04:26:53;;;;;;;;;;;22.80;41.00;;;;;;5087595;28;19920;-67
2022/12/23 04:29:19;;;;;;;;;;;22.70;40.90;;;;;;5087327;28;19925;-67
2022/12/23 04:31:44;;;;;;;;;;;22.70;41.00;;;;;;5088753;28;19921;-67
2022/12/23 04:34:10;;;;;;;;;;;22.70;41.00;;;;;;5087449;28;19924;-67
2022/12/23 04:36:35;;;;;;;;;;;22.80;40.90;;;;;;5104372;28;19920;-67
2022/12/23 04:39:01;;;;;;;;;;;22.80;40.90;;;;;;5085072;28;19920;-67
2022/12/23 04:41:26;;;;;;;;;;;22.80;40.90;;;;;;5073846;28;19920;-67
2022/12/23 04:43:52;;;;;;;;;;;22.80;40.80;;;;;;5074077;28;19924;-72
2022/12/23 04:46:17;;;;;;;;;;;22.90;40.80;;;;;;5073770;28;19921;-67
2022/12/23 04:48:43;;;;;;;;;;;22.90;40.70;;;;;;5073624;28;20061;-67
2022/12/23 04:51:08;;;;;;;;;;;22.90;40.70;;;;;;5073949;28;19927;-67
2022/12/23 04:53:35;;;;;;;;;;;22.90;40.70;;;;;;5074872;28;20402;-67
2022/12/23 04:56:01;;;;;;;;;;;22.90;40.60;;;;;;5073802;28;20056;-67
2022/12/23 04:58:26;;;;;;;;;;;22.90;40.70;;;;;;5074808;28;19920;-67
2022/12/23 05:01:08;;;;;;;;;;;22.90;40.70;;;;;;5073384;28;19924;-67
2022/12/23 05:03:34;;;;;;;;;;;22.90;40.70;;;;;;5074646;28;19942;-72
2022/12/23 05:06:00;;;;;;;;;;;22.90;40.60;;;;;;5074669;28;20435;-67
2022/12/23 05:08:26;;;;;;;;;;;22.90;40.70;;;;;;5074544;28;20346;-67
2022/12/23 05:10:51;;;;;;;;;;;22.90;40.60;;;;;;5073521;28;19921;-72
2022/12/23 05:13:17;;;;;;;;;;;22.90;40.50;;;;;;5073530;28;20291;-67
2022/12/23 05:15:43;;;;;;;;;;;22.90;40.50;;;;;;5073109;28;20038;-67
2022/12/23 05:18:09;;;;;;;;;;;22.90;40.40;;;;;;5074450;28;20323;-67
2022/12/23 05:20:34;;;;;;;;;;;23.00;40.40;;;;;;5074355;28;19959;-67
2022/12/23 05:23:00;;;;;;;;;;;23.10;40.30;;;;;;5073063;28;19920;-72
2022/12/23 05:25:25;;;;;;;;;;;23.10;40.20;;;;;;5074159;28;19925;-67
2022/12/23 05:27:51;;;;;;;;;;;23.10;40.20;;;;;;5071039;28;19975;-67
2022/12/23 05:30:16;;;;;;;;;;;23.10;40.10;;;;;;5076713;28;20015;-67
2022/12/23 05:32:42;;;;;;;;;;;23.10;40.10;;;;;;5076259;28;19931;-67
2022/12/23 05:35:08;;;;;;;;;;;23.10;40.10;;;;;;5076526;28;19920;-67
2022/12/23 05:37:33;;;;;;;;;;;23.10;40.10;;;;;;5094162;28;20291;-67
2022/12/23 05:39:59;;;;;;;;;;;23.10;40.00;;;;;;5076258;28;19928;-67
2022/12/23 05:42:24;;;;;;;;;;;23.10;40.10;;;;;;5094117;28;19920;-73
2022/12/23 05:44:50;;;;;;;;;;;23.00;39.90;;;;;;5094293;28;19973;-67
2022/12/23 05:47:15;;;;;;;;;;;23.00;40.00;;;;;;5094067;28;19920;-67
2022/12/23 05:49:41;;;;;;;;;;;23.00;40.00;;;;;;5093976;28;19925;-72
2022/12/23 05:52:06;;;;;;;;;;;23.10;40.00;;;;;;5092930;28;19920;-67
2022/12/23 05:54:32;;;;;;;;;;;23.00;39.90;;;;;;5075734;28;20011;-67
2022/12/23 05:56:57;;;;;;;;;;;23.00;40.00;;;;;;5093991;28;19924;-70
2022/12/23 05:59:23;;;;;;;;;;;22.90;39.90;;;;;;5075883;28;20383;-67
2022/12/23 06:01:49;;;;;;;;;;;23.00;40.00;;;;;;5093855;28;19946;-67
2022/12/23 06:04:14;;;;;;;;;;;23.00;40.00;;;;;;5093720;28;20364;-67
2022/12/23 06:06:40;;;;;;;;;;;23.00;40.00;;;;;;5075817;28;20344;-67
2022/12/23 06:09:05;;;;;;;;;;;23.00;40.00;;;;;;5075444;28;20299;-67
2022/12/23 06:11:31;;;;;;;;;;;23.00;39.90;;;;;;5093589;28;20288;-67
2022/12/23 06:13:56;;;;;;;;;;;23.00;39.90;;;;;;5093671;28;19967;-67
2022/12/23 06:16:22;;;;;;;;;;;23.00;39.80;;;;;;5075770;28;19960;-67
2022/12/23 06:18:47;;;;;;;;;;;23.00;39.80;;;;;;5093829;28;19978;-67
2022/12/23 06:21:13;;;;;;;;;;;23.10;39.80;;;;;;5093473;28;19920;-67
2022/12/23 06:23:38;;;;;;;;;;;23.10;39.70;;;;;;5075214;28;19919;-67
2022/12/23 06:26:04;;;;;;;;;;;23.10;39.70;;;;;;5075036;28;19920;-67
2022/12/23 06:28:29;;;;;;;;;;;23.10;39.60;;;;;;5088387;28;20065;-67
2022/12/23 06:30:55;;;;;;;;;;;23.10;39.60;;;;;;5073136;28;20390;-67
2022/12/23 06:33:22;;;;;;;;;;;23.10;39.50;;;;;;5071614;28;19920;-67
2022/12/23 06:35:47;;;;;;;;;;;23.10;39.50;;;;;;5071655;28;20399;-67
2022/12/23 06:38:13;;;;;;;;;;;23.20;39.50;;;;;;5070899;28;19924;-66
2022/12/23 06:40:41;;;;;;;;;;;23.10;39.40;;;;;;5070669;28;19943;-66
2022/12/23 06:43:08;;;;;;;;;;;23.10;40.10;;;;;;5070783;28;19947;-66
2022/12/23 06:45:34;;;;;;;;;;;22.90;40.10;;;;;;5072829;28;19925;-66
2022/12/23 06:47:59;;;;;;;;;;;22.50;40.30;;;;;;5072067;28;20392;-66
2022/12/23 06:50:25;;;;;;;;;;;22.40;40.80;;;;;;5071623;28;20276;-66
2022/12/23 06:52:50;;;;;;;;;;;22.20;40.90;;;;;;5072095;28;19926;-65
2022/12/23 06:55:16;;;;;;;;;;;22.20;41.40;;;;;;5071209;28;20007;-73
2022/12/23 06:57:41;;;;;;;;;;;22.40;41.90;;;;;;5070336;28;19982;-65
2022/12/23 07:00:07;;;;;;;;;;;22.70;41.60;;;;;;5069792;28;19928;-65
2022/12/23 07:02:33;;;;;;;;;;;23.00;41.40;;;;;;5068919;28;19924;-66
2022/12/23 07:04:58;;;;;;;;;;;23.30;41.20;;;;;;5067899;28;19920;-65
2022/12/23 07:07:24;;;;;;;;;;;23.50;40.50;;;;;;5070369;28;19981;-65
2022/12/23 07:09:49;;;;;;;;;;;23.50;40.20;;;;;;5061585;28;20031;-66
2022/12/23 07:12:15;;;;;;;;;;;23.60;40.20;;;;;;5061846;28;20031;-66
2022/12/23 07:14:40;;;;;;;;;;;23.80;40.20;;;;;;5057276;28;19978;-64
2022/12/23 07:17:06;;;;;;;;;;;23.80;40.20;;;;;;5058442;28;20007;-65
2022/12/23 07:19:31;;;;;;;;;;;23.70;40.40;;;;;;5065451;28;20342;-65
2022/12/23 07:21:57;;;;;;;;;;;23.70;40.40;;;;;;5066839;28;19921;-64
2022/12/23 07:24:23;;;;;;;;;;;23.60;40.40;;;;;;5066132;28;20444;-65
2022/12/23 07:26:49;;;;;;;;;;;23.60;40.50;;;;;;5052087;28;19947;-65
2022/12/23 07:29:15;;;;;;;;;;;23.60;40.60;;;;;;5070175;28;20364;-69
2022/12/23 07:31:40;;;;;;;;;;;23.50;40.60;;;;;;5056302;28;20174;-65
2022/12/23 07:34:06;;;;;;;;;;;23.50;40.80;;;;;;5058773;28;19932;-64
2022/12/23 07:36:31;;;;;;;;;;;23.40;41.00;;;;;;5051070;28;20663;-65
2022/12/23 07:38:57;;;;;;;;;;;23.30;41.10;;;;;;5054600;28;20466;-66
2022/12/23 07:41:23;;;;;;;;;;;23.20;41.40;;;;;;5052421;28;20015;-64
2022/12/23 07:43:48;;;;;;;;;;;22.90;41.10;;;;;;5051134;28;19966;-64
2022/12/23 07:46:14;;;;;;;;;;;22.80;42.00;;;;;;5071746;28;19927;-64
2022/12/23 07:48:40;;;;;;;;;;;22.60;42.40;;;;;;5052625;28;19928;-63
2022/12/23 07:51:06;;;;;;;;;;;22.60;42.60;;;;;;5069360;28;19970;-65
2022/12/23 07:53:32;;;;;;;;;;;22.60;42.70;;;;;;5050034;28;19986;-64
2022/12/23 07:55:57;;;;;;;;;;;22.50;42.80;;;;;;5051825;28;19966;-63
2022/12/23 07:58:23;;;;;;;;;;;22.50;43.20;;;;;;5052455;28;19949;-64
2022/12/23 08:00:49;;;;;;;;;;;22.40;43.20;;;;;;5069541;28;19932;-65
2022/12/23 08:03:14;;;;;;;;;;;22.40;43.40;;;;;;5053597;28;19924;-64
2022/12/23 08:05:40;;;;;;;;;;;22.40;43.50;;;;;;5068843;28;20023;-66
2022/12/23 08:08:05;;;;;;;;;;;22.50;43.70;;;;;;5073322;28;19936;-65
2022/12/23 08:10:31;;;;;;;;;;;22.50;43.70;;;;;;5053809;28;19924;-63
2022/12/23 08:12:59;;;;;;;;;;;22.60;43.50;;;;;;5074410;28;20054;-64
2022/12/23 08:15:24;;;;;;;;;;;22.70;43.40;;;;;;5074962;28;19931;-65
2022/12/23 08:17:50;;;;;;;;;;;22.80;43.30;;;;;;5074894;28;19924;-65
2022/12/23 08:20:15;;;;;;;;;;;23.00;43.10;;;;;;5057069;28;19928;-65
2022/12/23 08:22:41;;;;;;;;;;;23.20;42.70;;;;;;5057653;28;19931;-65
2022/12/23 08:25:07;;;;;;;;;;;23.40;42.30;;;;;;5058643;28;19925;-65
2022/12/23 08:27:33;;;;;;;;;;;23.40;42.00;;;;;;5073521;28;19935;-66
2022/12/23 08:29:58;;;;;;;;;;;23.50;41.90;;;;;;5068811;28;19959;-66
2022/12/23 08:32:25;;;;;;;;;;;23.40;41.80;;;;;;5074584;28;19998;-66
2022/12/23 08:34:51;;;;;;;;;;;23.20;42.30;;;;;;5056372;28;19968;-66
2022/12/23 08:37:16;;;;;;;;;;;22.90;42.60;;;;;;5056547;28;20023;-67
2022/12/23 08:39:42;;;;;;;;;;;22.60;43.10;;;;;;5055932;28;19928;-66
2022/12/23 08:42:08;;;;;;;;;;;22.50;43.60;;;;;;5066232;28;20014;-66
2022/12/23 08:44:33;;;;;;;;;;;22.30;43.80;;;;;;5074210;28;19924;-66
2022/12/23 08:46:59;;;;;;;;;;;22.20;45.00;;;;;;5059605;28;19924;-67
2022/12/23 08:49:24;;;;;;;;;;;22.20;44.50;;;;;;5075625;28;20703;-66
2022/12/23 08:51:50;;;;;;;;;;;22.20;44.60;;;;;;5070844;28;20937;-65
2022/12/23 08:54:16;;;;;;;;;;;22.20;44.90;;;;;;5047796;28;20404;-67
2022/12/23 08:56:42;;;;;;;;;;;22.30;44.70;;;;;;5051487;28;19945;-67
2022/12/23 08:59:11;;;;;;;;;;;22.30;44.70;;;;;;5071613;28;20015;-66
2022/12/23 09:01:37;;;;;;;;;;;22.40;44.50;;;;;;5053927;28;19924;-66
2022/12/23 09:04:03;;;;;;;;;;;22.40;44.60;;;;;;5054647;28;19939;-66
2022/12/23 09:06:31;;;;;;;;;;;22.40;44.50;;;;;;5070956;28;19928;-66
2022/12/23 09:08:57;;;;;;;;;;;22.40;44.40;;;;;;5070751;28;19928;-66
2022/12/23 09:11:24;;;;;;;;;;;22.50;44.70;;;;;;5053702;28;19935;-67
2022/12/23 09:13:49;;;;;;;;;;;22.50;44.40;;;;;;5071856;28;20006;-66
2022/12/23 09:16:15;;;;;;;;;;;22.60;44.20;;;;;;5052906;28;19944;-67
2022/12/23 09:18:41;;;;;;;;;;;22.70;44.40;;;;;;5051109;28;19924;-68
2022/12/23 09:21:09;;;;;;;;;;;22.70;44.20;;;;;;5069624;28;19921;-67
2022/12/23 09:23:35;;;;;;;;;;;22.80;44.00;;;;;;5073652;28;20455;-68
2022/12/23 09:26:02;;;;;;;;;;;22.80;44.40;;;;;;5070661;28;19974;-67
2022/12/23 09:28:28;;;;;;;;;;;22.80;44.60;;;;;;5069170;28;19928;-67
2022/12/23 09:30:53;;;;;;;;;;;22.80;44.70;;;;;;5054046;28;19924;-67
2022/12/23 09:33:19;;;;;;;;;;;22.70;44.70;;;;;;5074253;28;19925;-66
2022/12/23 09:35:44;;;;;;;;;;;22.80;44.70;;;;;;5071185;28;20978;-66
2022/12/23 09:38:10;;;;;;;;;;;22.80;44.20;;;;;;5053796;28;19975;-66
2022/12/23 09:40:37;;;;;;;;;;;22.70;44.00;;;;;;5070837;28;20389;-66
2022/12/23 09:43:11;;;;;;;;;;;22.60;44.10;;;;;;5052476;28;19928;-66
2022/12/23 09:48:19;;;;;;;;;;;22.50;44.30;;;;;;5149024;27;20059;-69
2022/12/23 09:50:45;;;;;;;;;;;22.50;44.70;;;;;;5132747;27;19927;-65
2022/12/23 09:53:14;;;;;;;;;;;22.50;44.60;;;;;;5124435;27;20295;-65
2022/12/23 09:55:59;;;;;;;;;;;22.60;44.60;;;;;;5124041;27;20014;-64
2022/12/23 09:58:28;;;;;;;;;;;22.70;44.60;;;;;;5124076;27;19977;-65
2022/12/23 10:01:00;;;;;;;;;;;22.60;44.60;;;;;;5126106;27;19930;-68
2022/12/23 10:03:30;;;;;;;;;;;22.60;44.70;;;;;;5114560;27;19926;-66
2022/12/23 10:06:03;;;;;;;;;;;22.70;44.70;;;;;;5124828;27;19923;-66
2022/12/23 10:13:52;;;;;;;;;;;22.50;44.70;;;;;;5085982;27;19934;-68
2022/12/23 10:16:19;;;;;;;;;;;22.40;45.00;;;;;;5068038;28;19925;-67
2022/12/23 10:19:04;;;;;;;;;;;22.30;45.30;;;;;;5073005;28;20426;-71
2022/12/23 10:21:49;;;;;;;;;;;22.30;45.20;;;;;;5072018;28;19925;-67
2022/12/23 10:24:18;;;;;;;;;;;22.30;45.30;;;;;;5077180;28;20397;-67
2022/12/23 10:26:47;;;;;;;;;;;22.40;45.40;;;;;;5071261;28;20023;-66
2022/12/23 10:29:16;;;;;;;;;;;22.40;45.40;;;;;;5078268;28;19928;-66
2022/12/23 10:32:01;;;;;;;;;;;22.40;45.20;;;;;;5074140;28;20386;-66
2022/12/23 10:37:11;;;;;;;;;;;22.50;45.20;;;;;;5075305;27;19924;-67
2022/12/23 10:39:44;;;;;;;;;;;22.70;45.00;;;;;;5076417;28;19935;-69
2022/12/23 10:42:17;;;;;;;;;;;22.70;44.70;;;;;;5070828;28;19924;-66
2022/12/23 10:45:02;;;;;;;;;;;22.70;44.60;;;;;;5070082;28;19931;-67
2022/12/23 10:47:34;;;;;;;;;;;22.70;44.80;;;;;;5070836;28;19928;-69
2022/12/23 10:50:19;;;;;;;;;;;22.60;44.70;;;;;;5069705;28;20027;-67
2022/12/23 10:52:46;;;;;;;;;;;22.50;44.90;;;;;;5084827;28;20318;-67
2022/12/23 10:55:21;;;;;;;;;;;22.40;45.20;;;;;;5102208;28;20297;-66
2022/12/23 10:57:48;;;;;;;;;;;22.40;45.40;;;;;;5096100;28;19924;-67
2022/12/23 11:00:17;;;;;;;;;;;22.30;45.50;;;;;;5051839;28;19963;-67
2022/12/23 11:02:48;;;;;;;;;;;22.20;45.90;;;;;;5066178;28;19924;-66
2022/12/23 11:05:15;;;;;;;;;;;22.10;45.90;;;;;;5070602;28;19936;-74
2022/12/23 11:07:42;;;;;;;;;;;22.20;45.90;;;;;;5071756;28;19931;-66
2022/12/23 11:10:27;;;;;;;;;;;22.20;45.80;;;;;;5071710;28;19925;-66
2022/12/23 11:12:53;;;;;;;;;;;22.20;45.70;;;;;;5071700;28;20380;-67
2022/12/23 11:18:05;;;;;;;;;;;22.10;45.80;;;;;;5082519;27;1868935;-65
2022/12/23 11:20:32;;;;;;;;;;;22.00;45.60;;;;;;5125475;27;19927;-66
2022/12/23 11:23:00;;;;;;;;;;;22.10;45.60;;;;;;5132670;27;20377;-66
2022/12/23 11:33:38;;;;;;;;;;;22.50;44.90;;;;;;5071471;28;19918;-66
2022/12/23 11:41:35;;;;;;;;;;;22.70;44.60;;;;;;5143532;27;20080;-66
2022/12/23 11:44:03;;;;;;;;;;;22.80;44.40;;;;;;5105459;27;19976;-66
2022/12/23 11:46:30;;;;;;;;;;;22.80;44.30;;;;;;5114558;27;20432;-66
2022/12/23 11:49:04;;;;;;;;;;;22.80;44.20;;;;;;5117381;27;20408;-67
2022/12/23 11:51:30;;;;;;;;;;;22.80;44.20;;;;;;5111212;27;20824;-66
2022/12/23 11:54:00;;;;;;;;;;;22.80;44.10;;;;;;5115547;27;19959;-66
2022/12/23 11:56:25;;;;;;;;;;;22.80;44.10;;;;;;5119465;27;19966;-67
2022/12/23 11:58:53;;;;;;;;;;;22.80;44.20;;;;;;5120004;27;19954;-67
2022/12/23 12:01:20;;;;;;;;;;;22.80;44.20;;;;;;5136880;27;19935;-68
2022/12/23 12:03:48;;;;;;;;;;;22.80;44.10;;;;;;5122946;27;20264;-70
2022/12/23 12:06:15;;;;;;;;;;;22.80;44.10;;;;;;5112883;27;20327;-74
2022/12/23 12:08:41;;;;;;;;;;;22.80;44.10;;;;;;5111891;27;19972;-67
2022/12/23 12:11:10;;;;;;;;;;;22.80;44.10;;;;;;5132280;27;19920;-67
2022/12/23 12:13:38;;;;;;;;;;;22.90;44.20;;;;;;5131520;27;19951;-72
2022/12/23 12:16:12;;;;;;;;;;;22.80;44.10;;;;;;5120737;27;19919;-72
2022/12/23 12:18:40;;;;;;;;;;;22.80;44.20;;;;;;5110594;27;19924;-74
2022/12/23 12:21:08;;;;;;;;;;;22.80;44.30;;;;;;5097633;27;19927;-74
2022/12/23 12:26:21;;;;;;;;;;;22.60;44.50;;;;;;5110145;27;1871451;-72
2022/12/23 12:28:48;;;;;;;;;;;22.70;44.70;;;;;;5141514;27;19923;-72
2022/12/23 12:31:25;;;;;;;;;;;22.60;44.80;;;;;;5138633;27;19927;-77
2022/12/23 12:34:10;;;;;;;;;;;22.60;44.80;;;;;;5139429;27;19923;-66
2022/12/23 12:36:56;;;;;;;;;;;22.60;44.80;;;;;;5139351;27;20041;-65
2022/12/23 12:39:25;;;;;;;;;;;22.60;44.80;;;;;;5135254;27;19926;-64
2022/12/23 12:41:54;;;;;;;;;;;22.50;44.90;;;;;;5161074;27;19924;-65
2022/12/23 12:47:05;;;;;;;;;;;22.50;44.80;;;;;;5097091;27;1911119;-65
2022/12/23 12:49:37;;;;;;;;;;;22.60;44.50;;;;;;5139078;27;19924;-74
2022/12/23 12:52:07;;;;;;;;;;;22.60;44.20;;;;;;5130711;27;19923;-67
2022/12/23 12:54:38;;;;;;;;;;;22.70;44.00;;;;;;5131963;27;19923;-65
2022/12/23 12:57:04;;;;;;;;;;;22.80;43.80;;;;;;5158138;27;19946;-65
2022/12/23 12:59:32;;;;;;;;;;;22.80;43.60;;;;;;5129817;27;20371;-65
2022/12/23 13:02:18;;;;;;;;;;;22.80;43.40;;;;;;5127970;27;20270;-65
2022/12/23 13:10:23;;;;;;;;;;;22.80;43.10;;;;;;5088033;28;19947;-65
2022/12/23 13:13:08;;;;;;;;;;;22.90;43.10;;;;;;5086424;28;19924;-65
2022/12/23 13:15:39;;;;;;;;;;;22.80;43.00;;;;;;5066199;28;19920;-64
2022/12/23 13:20:54;;;;;;;;;;;22.80;42.90;;;;;;5087408;28;19912;-65
2022/12/23 13:23:27;;;;;;;;;;;22.80;42.90;;;;;;5087263;28;19920;-65
2022/12/23 13:25:56;;;;;;;;;;;22.80;42.90;;;;;;5088905;28;19927;-65
2022/12/23 13:28:30;;;;;;;;;;;22.80;42.90;;;;;;5087825;28;19946;-72
2022/12/23 13:31:01;;;;;;;;;;;22.80;42.80;;;;;;5104374;28;20207;-65
2022/12/23 13:36:21;;;;;;;;;;;22.80;42.80;;;;;;5110113;27;19918;-65
2022/12/23 13:39:06;;;;;;;;;;;22.80;42.70;;;;;;5109399;28;20007;-64
2022/12/23 13:44:11;;;;;;;;;;;22.70;42.60;;;;;;5127318;27;1869325;-64
2022/12/23 13:49:27;;;;;;;;;;;22.70;42.60;;;;;;5089683;28;19919;-64
2022/12/23 13:54:54;;;;;;;;;;;22.70;42.50;;;;;;5089824;28;19913;-64
2022/12/23 14:00:20;;;;;;;;;;;22.70;42.50;;;;;;5089766;28;20418;-64
2022/12/23 14:02:48;;;;;;;;;;;22.70;42.50;;;;;;5089898;28;19958;-64
2022/12/23 14:05:34;;;;;;;;;;;22.70;42.40;;;;;;5088509;28;20040;-64
2022/12/23 14:08:01;;;;;;;;;;;22.70;42.40;;;;;;5088286;28;19962;-64
2022/12/23 14:10:27;;;;;;;;;;;22.70;42.30;;;;;;5088322;28;20014;-64
2022/12/23 14:12:58;;;;;;;;;;;22.70;42.30;;;;;;5088536;28;19924;-64
2022/12/23 14:18:25;;;;;;;;;;;22.70;42.20;;;;;;5089935;28;19920;-64
2022/12/23 14:26:21;;;;;;;;;;;22.70;42.00;;;;;;5110126;27;19919;-64
2022/12/23 14:29:06;;;;;;;;;;;22.80;42.10;;;;;;5110176;28;19966;-64
2022/12/23 14:31:36;;;;;;;;;;;22.70;42.10;;;;;;5108652;28;19920;-64
2022/12/23 14:34:03;;;;;;;;;;;22.70;42.00;;;;;;5109106;28;19989;-63
2022/12/23 14:36:29;;;;;;;;;;;22.70;42.00;;;;;;5108773;28;19920;-63
2022/12/23 14:41:52;;;;;;;;;;;22.70;42.00;;;;;;5110102;27;19912;-64
2022/12/23 14:44:37;;;;;;;;;;;22.70;42.00;;;;;;5109177;28;19928;-64
2022/12/23 14:47:23;;;;;;;;;;;22.70;42.00;;;;;;5108669;28;19974;-63
2022/12/23 14:49:48;;;;;;;;;;;22.70;42.00;;;;;;5108483;28;19942;-64
2022/12/23 14:52:34;;;;;;;;;;;22.70;42.00;;;;;;5110012;28;19920;-63
2022/12/23 14:55:19;;;;;;;;;;;22.60;41.90;;;;;;5108576;28;20030;-70
2022/12/23 14:57:45;;;;;;;;;;;22.70;42.00;;;;;;5109882;28;19920;-63
2022/12/23 15:00:11;;;;;;;;;;;22.70;41.90;;;;;;5108387;28;19977;-63
2022/12/23 15:02:39;;;;;;;;;;;22.70;42.00;;;;;;5108818;28;20459;-64
2022/12/23 15:05:05;;;;;;;;;;;22.60;41.90;;;;;;5109832;28;19994;-64
2022/12/23 15:12:56;;;;;;;;;;;22.60;41.90;;;;;;5127485;27;1866428;-64
2022/12/23 15:15:24;;;;;;;;;;;22.50;41.90;;;;;;5174200;27;19919;-64
2022/12/23 15:18:10;;;;;;;;;;;22.50;42.10;;;;;;5174328;27;19926;-64
2022/12/23 15:20:35;;;;;;;;;;;22.40;42.10;;;;;;5174210;27;19930;-64
2022/12/23 15:23:07;;;;;;;;;;;22.40;42.20;;;;;;5174590;27;19918;-64
2022/12/23 15:25:33;;;;;;;;;;;22.30;42.30;;;;;;5174517;27;19963;-64
2022/12/23 15:28:00;;;;;;;;;;;22.20;42.50;;;;;;5174099;27;19923;-64
2022/12/23 15:30:27;;;;;;;;;;;22.20;42.50;;;;;;5174049;27;19918;-63
2022/12/23 15:32:57;;;;;;;;;;;22.10;42.60;;;;;;5174111;27;20326;-64
2022/12/23 15:35:28;;;;;;;;;;;22.10;42.70;;;;;;5173981;27;19918;-64
2022/12/23 15:37:54;;;;;;;;;;;22.00;42.80;;;;;;5192892;27;20273;-63
2022/12/23 15:40:23;;;;;;;;;;;21.90;42.90;;;;;;5173869;27;19919;-64
2022/12/23 15:42:49;;;;;;;;;;;21.70;43.10;;;;;;5192703;27;19929;-70
2022/12/23 15:48:03;;;;;;;;;;;21.50;43.50;;;;;;5110184;27;20407;-63
2022/12/23 15:50:29;;;;;;;;;;;21.40;43.80;;;;;;5108841;28;19920;-63
2022/12/23 15:52:56;;;;;;;;;;;21.30;44.00;;;;;;5110205;28;20019;-64
2022/12/23 15:55:23;;;;;;;;;;;21.20;44.20;;;;;;5108846;28;19924;-64
2022/12/23 15:57:49;;;;;;;;;;;21.10;44.40;;;;;;5108709;28;20007;-70
2022/12/23 16:00:24;;;;;;;;;;;21.00;44.60;;;;;;5109967;28;19974;-64
2022/12/23 16:02:50;;;;;;;;;;;20.90;44.70;;;;;;5142986;27;20414;-63
2022/12/23 16:05:33;;;;;;;;;;;20.80;45.60;;;;;;5108949;28;19920;-64
2022/12/23 16:10:56;;;;;;;;;;;20.80;45.00;;;;;;5089843;28;20310;-63
2022/12/23 16:13:22;;;;;;;;;;;20.80;45.10;;;;;;5088422;28;19920;-64
2022/12/23 16:15:47;;;;;;;;;;;20.70;45.10;;;;;;5088585;28;19970;-63
2022/12/23 16:20:56;;;;;;;;;;;20.70;45.20;;;;;;5089888;28;19912;-64
2022/12/23 16:23:22;;;;;;;;;;;20.60;45.20;;;;;;5088831;28;19921;-63
2022/12/23 16:25:50;;;;;;;;;;;20.60;45.30;;;;;;5088520;28;19920;-64
2022/12/23 16:28:21;;;;;;;;;;;20.60;45.40;;;;;;5088774;28;19935;-64
2022/12/23 16:30:48;;;;;;;;;;;20.50;45.40;;;;;;5088706;28;19921;-64
2022/12/23 16:36:17;;;;;;;;;;;20.40;45.60;;;;;;5089903;28;19913;-64
2022/12/23 16:38:42;;;;;;;;;;;20.40;45.60;;;;;;5089838;28;19927;-64